sensor_id;sensor_type;location;lat;lon;timestamp;P1;durP1;ratioP1;P2;durP2;ratioP2
14849;SDS011;7517;48.400;11.770;2023-04-19T00:00:26;6.10;;;5.50;;
14849;SDS011;7517;48.400;11.770;2023-04-19T00:02:53;5.93;;;5.43;;
14849;SDS011;7517;48.400;11.770;2023-04-19T00:05:21;6.67;;;6.07;;
14849;SDS011;7517;48.400;11.770;2023-04-19T00:07:50;6.27;;;5.73;;
14849;SDS011;7517;48.400;11.770;2023-04-19T00:10:17;6.63;;;6.03;;
14849;SDS011;7517;48.400;11.770;2023-04-19T00:12:46;7.47;;;6.87;;
14849;SDS011;7517;48.400;11.770;2023-04-19T00:15:13;7.20;;;6.50;;
14849;SDS011;7517;48.400;11.770;2023-04-19T00:17:41;8.03;;;7.20;;
14849;SDS011;7517;48.400;11.770;2023-04-19T00:20:09;9.97;;;7.10;;
14849;SDS011;7517;48.400;11.770;2023-04-19T00:22:39;7.70;;;6.90;;
14849;SDS011;7517;48.400;11.770;2023-04-19T00:25:09;7.77;;;7.07;;
14849;SDS011;7517;48.400;11.770;2023-04-19T00:27:36;7.27;;;6.67;;
14849;SDS011;7517;48.400;11.770;2023-04-19T00:30:05;7.23;;;6.63;;
14849;SDS011;7517;48.400;11.770;2023-04-19T00:32:33;8.50;;;7.70;;
14849;SDS011;7517;48.400;11.770;2023-04-19T00:35:01;7.93;;;7.13;;
14849;SDS011;7517;48.400;11.770;2023-04-19T00:37:29;8.23;;;7.43;;
14849;SDS011;7517;48.400;11.770;2023-04-19T00:39:57;7.63;;;7.03;;
14849;SDS011;7517;48.400;11.770;2023-04-19T00:42:25;8.30;;;7.50;;
14849;SDS011;7517;48.400;11.770;2023-04-19T00:44:53;8.67;;;7.67;;
14849;SDS011;7517;48.400;11.770;2023-04-19T00:47:22;8.33;;;7.53;;
14849;SDS011;7517;48.400;11.770;2023-04-19T00:49:51;8.00;;;7.27;;
14849;SDS011;7517;48.400;11.770;2023-04-19T00:52:19;8.60;;;7.37;;
14849;SDS011;7517;48.400;11.770;2023-04-19T00:54:48;7.57;;;6.87;;
14849;SDS011;7517;48.400;11.770;2023-04-19T00:57:16;8.33;;;7.43;;
14849;SDS011;7517;48.400;11.770;2023-04-19T00:59:44;8.93;;;8.03;;
14849;SDS011;7517;48.400;11.770;2023-04-19T01:02:11;7.73;;;7.03;;
14849;SDS011;7517;48.400;11.770;2023-04-19T01:04:40;9.67;;;7.50;;
14849;SDS011;7517;48.400;11.770;2023-04-19T01:07:07;8.87;;;7.73;;
14849;SDS011;7517;48.400;11.770;2023-04-19T01:09:39;9.13;;;8.20;;
14849;SDS011;7517;48.400;11.770;2023-04-19T01:12:11;8.97;;;8.17;;
14849;SDS011;7517;48.400;11.770;2023-04-19T01:14:38;9.53;;;8.57;;
14849;SDS011;7517;48.400;11.770;2023-04-19T01:17:05;9.13;;;8.27;;
14849;SDS011;7517;48.400;11.770;2023-04-19T01:19:33;9.93;;;8.20;;
14849;SDS011;7517;48.400;11.770;2023-04-19T01:22:04;9.13;;;8.13;;
14849;SDS011;7517;48.400;11.770;2023-04-19T01:24:33;8.90;;;7.43;;
14849;SDS011;7517;48.400;11.770;2023-04-19T01:27:00;8.93;;;7.93;;
14849;SDS011;7517;48.400;11.770;2023-04-19T01:29:28;10.90;;;8.07;;
14849;SDS011;7517;48.400;11.770;2023-04-19T01:32:01;8.50;;;7.70;;
14849;SDS011;7517;48.400;11.770;2023-04-19T01:34:28;8.33;;;7.53;;
14849;SDS011;7517;48.400;11.770;2023-04-19T01:36:56;8.13;;;7.27;;
14849;SDS011;7517;48.400;11.770;2023-04-19T01:39:24;7.97;;;7.17;;
14849;SDS011;7517;48.400;11.770;2023-04-19T01:41:55;9.70;;;8.37;;
14849;SDS011;7517;48.400;11.770;2023-04-19T01:44:22;8.40;;;7.50;;
14849;SDS011;7517;48.400;11.770;2023-04-19T01:46:50;7.87;;;7.17;;
14849;SDS011;7517;48.400;11.770;2023-04-19T01:49:17;8.67;;;7.83;;
14849;SDS011;7517;48.400;11.770;2023-04-19T01:51:44;10.03;;;7.70;;
14849;SDS011;7517;48.400;11.770;2023-04-19T01:54:11;9.03;;;7.97;;
14849;SDS011;7517;48.400;11.770;2023-04-19T01:56:38;10.40;;;8.47;;
14849;SDS011;7517;48.400;11.770;2023-04-19T01:59:07;9.73;;;8.30;;
14849;SDS011;7517;48.400;11.770;2023-04-19T02:01:34;10.40;;;8.03;;
14849;SDS011;7517;48.400;11.770;2023-04-19T02:04:01;9.00;;;7.43;;
14849;SDS011;7517;48.400;11.770;2023-04-19T02:06:29;11.27;;;8.40;;
14849;SDS011;7517;48.400;11.770;2023-04-19T02:08:56;8.83;;;7.97;;
14849;SDS011;7517;48.400;11.770;2023-04-19T02:11:24;8.57;;;7.73;;
14849;SDS011;7517;48.400;11.770;2023-04-19T02:13:51;10.40;;;8.37;;
14849;SDS011;7517;48.400;11.770;2023-04-19T02:16:20;8.50;;;7.70;;
14849;SDS011;7517;48.400;11.770;2023-04-19T02:18:47;9.27;;;8.40;;
14849;SDS011;7517;48.400;11.770;2023-04-19T02:21:14;9.20;;;8.27;;
14849;SDS011;7517;48.400;11.770;2023-04-19T02:23:42;9.53;;;8.53;;
14849;SDS011;7517;48.400;11.770;2023-04-19T02:26:09;8.60;;;7.70;;
14849;SDS011;7517;48.400;11.770;2023-04-19T02:28:37;9.73;;;7.67;;
14849;SDS011;7517;48.400;11.770;2023-04-19T02:31:04;8.53;;;7.73;;
14849;SDS011;7517;48.400;11.770;2023-04-19T02:33:33;9.10;;;8.20;;
14849;SDS011;7517;48.400;11.770;2023-04-19T02:36:01;8.80;;;7.90;;
14849;SDS011;7517;48.400;11.770;2023-04-19T02:38:28;8.60;;;7.43;;
14849;SDS011;7517;48.400;11.770;2023-04-19T02:40:55;8.73;;;7.93;;
14849;SDS011;7517;48.400;11.770;2023-04-19T02:43:26;8.80;;;7.90;;
14849;SDS011;7517;48.400;11.770;2023-04-19T02:45:53;9.50;;;8.50;;
14849;SDS011;7517;48.400;11.770;2023-04-19T02:48:20;10.17;;;8.40;;
14849;SDS011;7517;48.400;11.770;2023-04-19T02:50:49;9.17;;;8.27;;
14849;SDS011;7517;48.400;11.770;2023-04-19T02:53:16;13.47;;;7.07;;
14849;SDS011;7517;48.400;11.770;2023-04-19T02:55:44;8.00;;;7.27;;
14849;SDS011;7517;48.400;11.770;2023-04-19T02:58:11;9.20;;;8.30;;
14849;SDS011;7517;48.400;11.770;2023-04-19T03:00:39;8.13;;;7.33;;
14849;SDS011;7517;48.400;11.770;2023-04-19T03:03:07;8.90;;;7.53;;
14849;SDS011;7517;48.400;11.770;2023-04-19T03:05:34;8.67;;;7.83;;
14849;SDS011;7517;48.400;11.770;2023-04-19T03:08:03;10.57;;;9.13;;
14849;SDS011;7517;48.400;11.770;2023-04-19T03:10:30;8.73;;;7.90;;
14849;SDS011;7517;48.400;11.770;2023-04-19T03:12:57;9.20;;;7.90;;
14849;SDS011;7517;48.400;11.770;2023-04-19T03:15:25;9.67;;;8.50;;
14849;SDS011;7517;48.400;11.770;2023-04-19T03:17:52;9.93;;;8.00;;
14849;SDS011;7517;48.400;11.770;2023-04-19T03:20:19;9.80;;;8.83;;
14849;SDS011;7517;48.400;11.770;2023-04-19T03:22:48;11.03;;;8.27;;
14849;SDS011;7517;48.400;11.770;2023-04-19T03:25:16;10.57;;;8.77;;
14849;SDS011;7517;48.400;11.770;2023-04-19T03:27:44;8.87;;;7.97;;
14849;SDS011;7517;48.400;11.770;2023-04-19T03:30:13;9.40;;;8.20;;
14849;SDS011;7517;48.400;11.770;2023-04-19T03:32:42;10.43;;;8.90;;
14849;SDS011;7517;48.400;11.770;2023-04-19T03:35:10;11.03;;;8.47;;
14849;SDS011;7517;48.400;11.770;2023-04-19T03:37:37;12.17;;;8.80;;
14849;SDS011;7517;48.400;11.770;2023-04-19T03:40:05;9.57;;;8.53;;
14849;SDS011;7517;48.400;11.770;2023-04-19T03:42:35;9.60;;;8.60;;
14849;SDS011;7517;48.400;11.770;2023-04-19T03:45:03;10.17;;;9.10;;
14849;SDS011;7517;48.400;11.770;2023-04-19T03:47:31;9.70;;;8.33;;
14849;SDS011;7517;48.400;11.770;2023-04-19T03:49:58;9.07;;;8.10;;
14849;SDS011;7517;48.400;11.770;2023-04-19T03:52:26;10.67;;;8.73;;
14849;SDS011;7517;48.400;11.770;2023-04-19T03:54:53;10.80;;;8.63;;
14849;SDS011;7517;48.400;11.770;2023-04-19T03:57:20;9.57;;;8.40;;
14849;SDS011;7517;48.400;11.770;2023-04-19T03:59:49;10.63;;;8.20;;
14849;SDS011;7517;48.400;11.770;2023-04-19T04:02:16;9.80;;;8.73;;
14849;SDS011;7517;48.400;11.770;2023-04-19T04:04:43;12.60;;;8.77;;
14849;SDS011;7517;48.400;11.770;2023-04-19T04:07:12;8.97;;;8.00;;
14849;SDS011;7517;48.400;11.770;2023-04-19T04:09:39;10.70;;;9.00;;
14849;SDS011;7517;48.400;11.770;2023-04-19T04:12:07;12.40;;;8.73;;
14849;SDS011;7517;48.400;11.770;2023-04-19T04:14:34;10.87;;;8.77;;
14849;SDS011;7517;48.400;11.770;2023-04-19T04:17:05;11.00;;;9.37;;
14849;SDS011;7517;48.400;11.770;2023-04-19T04:19:34;11.33;;;9.10;;
14849;SDS011;7517;48.400;11.770;2023-04-19T04:22:04;9.40;;;7.73;;
14849;SDS011;7517;48.400;11.770;2023-04-19T04:24:36;11.03;;;8.83;;
14849;SDS011;7517;48.400;11.770;2023-04-19T04:27:08;10.97;;;8.80;;
14849;SDS011;7517;48.400;11.770;2023-04-19T04:29:36;9.33;;;8.37;;
14849;SDS011;7517;48.400;11.770;2023-04-19T04:32:07;12.27;;;9.33;;
14849;SDS011;7517;48.400;11.770;2023-04-19T04:34:37;9.77;;;8.00;;
14849;SDS011;7517;48.400;11.770;2023-04-19T04:37:06;11.73;;;8.93;;
14849;SDS011;7517;48.400;11.770;2023-04-19T04:39:35;11.40;;;8.73;;
14849;SDS011;7517;48.400;11.770;2023-04-19T04:42:04;10.77;;;9.37;;
14849;SDS011;7517;48.400;11.770;2023-04-19T04:44:32;11.77;;;9.40;;
14849;SDS011;7517;48.400;11.770;2023-04-19T04:47:01;11.07;;;8.37;;
14849;SDS011;7517;48.400;11.770;2023-04-19T04:49:30;10.03;;;8.70;;
14849;SDS011;7517;48.400;11.770;2023-04-19T04:51:58;10.20;;;8.67;;
14849;SDS011;7517;48.400;11.770;2023-04-19T04:54:25;13.37;;;9.60;;
14849;SDS011;7517;48.400;11.770;2023-04-19T04:56:52;11.20;;;9.23;;
14849;SDS011;7517;48.400;11.770;2023-04-19T04:59:19;9.70;;;8.03;;
14849;SDS011;7517;48.400;11.770;2023-04-19T05:01:46;11.90;;;8.83;;
14849;SDS011;7517;48.400;11.770;2023-04-19T05:04:13;12.70;;;9.63;;
14849;SDS011;7517;48.400;11.770;2023-04-19T05:06:42;14.23;;;9.37;;
14849;SDS011;7517;48.400;11.770;2023-04-19T05:09:12;10.33;;;8.40;;
14849;SDS011;7517;48.400;11.770;2023-04-19T05:11:40;14.70;;;8.53;;
14849;SDS011;7517;48.400;11.770;2023-04-19T05:14:07;9.87;;;8.63;;
14849;SDS011;7517;48.400;11.770;2023-04-19T05:16:34;10.53;;;8.67;;
14849;SDS011;7517;48.400;11.770;2023-04-19T05:19:01;12.50;;;9.27;;
14849;SDS011;7517;48.400;11.770;2023-04-19T05:21:28;10.87;;;8.73;;
14849;SDS011;7517;48.400;11.770;2023-04-19T05:23:58;9.90;;;8.63;;
14849;SDS011;7517;48.400;11.770;2023-04-19T05:26:25;12.07;;;8.70;;
14849;SDS011;7517;48.400;11.770;2023-04-19T05:28:52;11.63;;;9.33;;
14849;SDS011;7517;48.400;11.770;2023-04-19T05:31:20;11.53;;;9.53;;
14849;SDS011;7517;48.400;11.770;2023-04-19T05:33:48;13.20;;;9.53;;
14849;SDS011;7517;48.400;11.770;2023-04-19T05:36:17;12.77;;;10.17;;
14849;SDS011;7517;48.400;11.770;2023-04-19T05:38:44;11.43;;;8.77;;
14849;SDS011;7517;48.400;11.770;2023-04-19T05:41:13;13.23;;;10.27;;
14849;SDS011;7517;48.400;11.770;2023-04-19T05:43:46;13.93;;;10.23;;
14849;SDS011;7517;48.400;11.770;2023-04-19T05:46:14;12.80;;;9.37;;
14849;SDS011;7517;48.400;11.770;2023-04-19T05:48:41;11.30;;;8.70;;
14849;SDS011;7517;48.400;11.770;2023-04-19T05:51:08;12.80;;;9.77;;
14849;SDS011;7517;48.400;11.770;2023-04-19T05:53:36;14.67;;;10.90;;
14849;SDS011;7517;48.400;11.770;2023-04-19T05:56:03;10.77;;;9.30;;
14849;SDS011;7517;48.400;11.770;2023-04-19T05:58:32;13.97;;;10.03;;
14849;SDS011;7517;48.400;11.770;2023-04-19T06:01:00;12.10;;;9.77;;
14849;SDS011;7517;48.400;11.770;2023-04-19T06:03:28;12.53;;;10.17;;
14849;SDS011;7517;48.400;11.770;2023-04-19T06:05:57;12.57;;;9.97;;
14849;SDS011;7517;48.400;11.770;2023-04-19T06:08:24;14.13;;;10.10;;
14849;SDS011;7517;48.400;11.770;2023-04-19T06:10:52;12.17;;;9.10;;
14849;SDS011;7517;48.400;11.770;2023-04-19T06:13:20;14.53;;;10.70;;
14849;SDS011;7517;48.400;11.770;2023-04-19T06:15:49;12.67;;;9.63;;
14849;SDS011;7517;48.400;11.770;2023-04-19T06:18:17;11.23;;;8.57;;
14849;SDS011;7517;48.400;11.770;2023-04-19T06:20:44;12.90;;;9.93;;
14849;SDS011;7517;48.400;11.770;2023-04-19T06:23:11;14.30;;;10.60;;
14849;SDS011;7517;48.400;11.770;2023-04-19T06:25:38;15.17;;;10.73;;
14849;SDS011;7517;48.400;11.770;2023-04-19T06:28:06;13.00;;;10.43;;
14849;SDS011;7517;48.400;11.770;2023-04-19T06:30:33;12.63;;;9.27;;
14849;SDS011;7517;48.400;11.770;2023-04-19T06:33:02;12.20;;;9.97;;
14849;SDS011;7517;48.400;11.770;2023-04-19T06:35:29;13.10;;;11.03;;
14849;SDS011;7517;48.400;11.770;2023-04-19T06:37:57;12.77;;;10.20;;
14849;SDS011;7517;48.400;11.770;2023-04-19T06:40:27;13.33;;;10.00;;
14849;SDS011;7517;48.400;11.770;2023-04-19T06:42:55;11.53;;;9.77;;
14849;SDS011;7517;48.400;11.770;2023-04-19T06:45:23;13.87;;;10.33;;
14849;SDS011;7517;48.400;11.770;2023-04-19T06:47:51;11.53;;;9.67;;
14849;SDS011;7517;48.400;11.770;2023-04-19T06:50:22;12.17;;;9.87;;
14849;SDS011;7517;48.400;11.770;2023-04-19T06:52:51;12.50;;;9.90;;
14849;SDS011;7517;48.400;11.770;2023-04-19T06:55:19;14.80;;;10.03;;
14849;SDS011;7517;48.400;11.770;2023-04-19T06:57:46;12.63;;;10.20;;
14849;SDS011;7517;48.400;11.770;2023-04-19T07:00:14;11.93;;;9.50;;
14849;SDS011;7517;48.400;11.770;2023-04-19T07:02:42;11.60;;;9.47;;
14849;SDS011;7517;48.400;11.770;2023-04-19T07:05:09;11.90;;;10.40;;
14849;SDS011;7517;48.400;11.770;2023-04-19T07:07:42;14.50;;;10.37;;
14849;SDS011;7517;48.400;11.770;2023-04-19T07:10:09;12.20;;;10.27;;
14849;SDS011;7517;48.400;11.770;2023-04-19T07:12:37;12.33;;;9.97;;
14849;SDS011;7517;48.400;11.770;2023-04-19T07:15:05;12.17;;;9.80;;
14849;SDS011;7517;48.400;11.770;2023-04-19T07:17:34;10.33;;;9.27;;
14849;SDS011;7517;48.400;11.770;2023-04-19T07:20:03;12.77;;;10.00;;
14849;SDS011;7517;48.400;11.770;2023-04-19T07:22:32;11.67;;;9.33;;
14849;SDS011;7517;48.400;11.770;2023-04-19T07:25:00;12.40;;;10.30;;
14849;SDS011;7517;48.400;11.770;2023-04-19T07:27:28;12.60;;;9.57;;
14849;SDS011;7517;48.400;11.770;2023-04-19T07:29:55;10.03;;;9.00;;
14849;SDS011;7517;48.400;11.770;2023-04-19T07:32:22;13.30;;;10.03;;
14849;SDS011;7517;48.400;11.770;2023-04-19T07:34:51;12.93;;;9.37;;
14849;SDS011;7517;48.400;11.770;2023-04-19T07:37:18;11.30;;;9.47;;
14849;SDS011;7517;48.400;11.770;2023-04-19T07:39:48;11.97;;;9.57;;
14849;SDS011;7517;48.400;11.770;2023-04-19T07:42:17;10.00;;;9.00;;
14849;SDS011;7517;48.400;11.770;2023-04-19T07:44:44;11.23;;;9.00;;
14849;SDS011;7517;48.400;11.770;2023-04-19T07:47:11;9.70;;;8.20;;
14849;SDS011;7517;48.400;11.770;2023-04-19T07:49:38;10.73;;;9.07;;
14849;SDS011;7517;48.400;11.770;2023-04-19T07:52:06;11.57;;;9.13;;
14849;SDS011;7517;48.400;11.770;2023-04-19T07:54:33;11.80;;;9.77;;
14849;SDS011;7517;48.400;11.770;2023-04-19T07:57:03;10.40;;;8.43;;
14849;SDS011;7517;48.400;11.770;2023-04-19T07:59:31;12.00;;;9.07;;
14849;SDS011;7517;48.400;11.770;2023-04-19T08:01:59;13.03;;;8.50;;
14849;SDS011;7517;48.400;11.770;2023-04-19T08:04:27;11.13;;;9.10;;
14849;SDS011;7517;48.400;11.770;2023-04-19T08:06:54;10.00;;;8.83;;
14849;SDS011;7517;48.400;11.770;2023-04-19T08:09:23;11.03;;;9.43;;
14849;SDS011;7517;48.400;11.770;2023-04-19T08:11:53;10.53;;;9.27;;
14849;SDS011;7517;48.400;11.770;2023-04-19T08:14:21;11.07;;;8.93;;
14849;SDS011;7517;48.400;11.770;2023-04-19T08:16:50;12.50;;;9.63;;
14849;SDS011;7517;48.400;11.770;2023-04-19T08:19:17;10.07;;;8.80;;
14849;SDS011;7517;48.400;11.770;2023-04-19T08:21:45;11.17;;;8.93;;
14849;SDS011;7517;48.400;11.770;2023-04-19T08:24:12;10.50;;;8.90;;
14849;SDS011;7517;48.400;11.770;2023-04-19T08:26:40;11.47;;;9.50;;
14849;SDS011;7517;48.400;11.770;2023-04-19T08:29:08;12.40;;;9.33;;
14849;SDS011;7517;48.400;11.770;2023-04-19T08:31:36;11.80;;;9.47;;
14849;SDS011;7517;48.400;11.770;2023-04-19T08:34:05;11.63;;;9.43;;
14849;SDS011;7517;48.400;11.770;2023-04-19T08:36:32;10.23;;;8.63;;
14849;SDS011;7517;48.400;11.770;2023-04-19T08:39:02;11.13;;;9.73;;
14849;SDS011;7517;48.400;11.770;2023-04-19T08:41:29;13.83;;;9.73;;
14849;SDS011;7517;48.400;11.770;2023-04-19T08:43:57;12.87;;;9.20;;
14849;SDS011;7517;48.400;11.770;2023-04-19T08:46:28;10.80;;;9.07;;
14849;SDS011;7517;48.400;11.770;2023-04-19T08:48:58;10.60;;;9.13;;
14849;SDS011;7517;48.400;11.770;2023-04-19T08:51:28;10.20;;;8.90;;
14849;SDS011;7517;48.400;11.770;2023-04-19T08:53:57;11.20;;;8.77;;
14849;SDS011;7517;48.400;11.770;2023-04-19T08:56:25;10.90;;;9.10;;
14849;SDS011;7517;48.400;11.770;2023-04-19T08:58:53;10.43;;;9.07;;
14849;SDS011;7517;48.400;11.770;2023-04-19T09:01:21;9.90;;;8.70;;
14849;SDS011;7517;48.400;11.770;2023-04-19T09:03:48;9.13;;;8.23;;
14849;SDS011;7517;48.400;11.770;2023-04-19T09:06:18;10.80;;;9.33;;
14849;SDS011;7517;48.400;11.770;2023-04-19T09:08:47;9.40;;;8.40;;
14849;SDS011;7517;48.400;11.770;2023-04-19T09:11:16;11.10;;;9.57;;
14849;SDS011;7517;48.400;11.770;2023-04-19T09:13:44;10.23;;;8.47;;
14849;SDS011;7517;48.400;11.770;2023-04-19T09:16:22;12.00;;;8.77;;
14849;SDS011;7517;48.400;11.770;2023-04-19T09:18:53;9.40;;;8.20;;
14849;SDS011;7517;48.400;11.770;2023-04-19T09:21:26;9.63;;;8.00;;
14849;SDS011;7517;48.400;11.770;2023-04-19T09:23:56;9.10;;;8.20;;
14849;SDS011;7517;48.400;11.770;2023-04-19T09:26:25;10.47;;;8.37;;
14849;SDS011;7517;48.400;11.770;2023-04-19T09:28:56;10.07;;;8.60;;
14849;SDS011;7517;48.400;11.770;2023-04-19T09:31:26;10.33;;;8.50;;
14849;SDS011;7517;48.400;11.770;2023-04-19T09:33:55;9.77;;;7.97;;
14849;SDS011;7517;48.400;11.770;2023-04-19T09:36:26;10.10;;;8.27;;
14849;SDS011;7517;48.400;11.770;2023-04-19T09:38:58;8.70;;;7.80;;
14849;SDS011;7517;48.400;11.770;2023-04-19T09:41:25;8.40;;;7.50;;
14849;SDS011;7517;48.400;11.770;2023-04-19T09:43:53;9.17;;;8.17;;
14849;SDS011;7517;48.400;11.770;2023-04-19T09:46:35;9.40;;;7.60;;
14849;SDS011;7517;48.400;11.770;2023-04-19T09:49:17;8.77;;;7.87;;
14849;SDS011;7517;48.400;11.770;2023-04-19T09:51:48;9.73;;;7.80;;
14849;SDS011;7517;48.400;11.770;2023-04-19T09:54:19;9.73;;;8.00;;
14849;SDS011;7517;48.400;11.770;2023-04-19T09:56:50;9.00;;;7.97;;
14849;SDS011;7517;48.400;11.770;2023-04-19T09:59:17;11.37;;;8.17;;
14849;SDS011;7517;48.400;11.770;2023-04-19T10:01:46;8.73;;;7.83;;
14849;SDS011;7517;48.400;11.770;2023-04-19T10:04:19;8.93;;;8.03;;
14849;SDS011;7517;48.400;11.770;2023-04-19T10:06:47;8.57;;;7.73;;
14849;SDS011;7517;48.400;11.770;2023-04-19T10:09:26;8.53;;;7.73;;
14849;SDS011;7517;48.400;11.770;2023-04-19T10:11:56;10.33;;;8.17;;
14849;SDS011;7517;48.400;11.770;2023-04-19T10:14:26;9.20;;;8.30;;
14849;SDS011;7517;48.400;11.770;2023-04-19T10:17:01;9.90;;;8.87;;
14849;SDS011;7517;48.400;11.770;2023-04-19T10:19:28;8.40;;;7.60;;
14849;SDS011;7517;48.400;11.770;2023-04-19T10:22:01;10.17;;;8.17;;
14849;SDS011;7517;48.400;11.770;2023-04-19T10:24:32;10.80;;;8.33;;
14849;SDS011;7517;48.400;11.770;2023-04-19T10:27:09;9.13;;;8.17;;
14849;SDS011;7517;48.400;11.770;2023-04-19T10:29:54;9.97;;;8.67;;
14849;SDS011;7517;48.400;11.770;2023-04-19T10:32:28;9.10;;;8.07;;
14849;SDS011;7517;48.400;11.770;2023-04-19T10:35:06;9.03;;;8.17;;
14849;SDS011;7517;48.400;11.770;2023-04-19T10:37:38;9.87;;;8.43;;
14849;SDS011;7517;48.400;11.770;2023-04-19T10:40:12;12.87;;;8.90;;
14849;SDS011;7517;48.400;11.770;2023-04-19T10:43:36;9.13;;;8.17;;
14849;SDS011;7517;48.400;11.770;2023-04-19T10:46:07;10.80;;;9.10;;
14849;SDS011;7517;48.400;11.770;2023-04-19T10:48:40;12.23;;;8.93;;
14849;SDS011;7517;48.400;11.770;2023-04-19T10:51:31;9.50;;;8.50;;
14849;SDS011;7517;48.400;11.770;2023-04-19T10:54:00;9.77;;;8.63;;
14849;SDS011;7517;48.400;11.770;2023-04-19T10:59:36;8.93;;;7.73;;
14849;SDS011;7517;48.400;11.770;2023-04-19T11:02:05;10.20;;;8.33;;
14849;SDS011;7517;48.400;11.770;2023-04-19T11:04:58;8.60;;;7.70;;
14849;SDS011;7517;48.400;11.770;2023-04-19T11:07:27;8.80;;;7.23;;
14849;SDS011;7517;48.400;11.770;2023-04-19T11:10:05;7.47;;;6.70;;
14849;SDS011;7517;48.400;11.770;2023-04-19T11:12:40;7.73;;;6.47;;
14849;SDS011;7517;48.400;11.770;2023-04-19T11:15:09;6.60;;;5.63;;
14849;SDS011;7517;48.400;11.770;2023-04-19T11:17:37;5.63;;;5.10;;
14849;SDS011;7517;48.400;11.770;2023-04-19T11:20:06;5.20;;;4.70;;
14849;SDS011;7517;48.400;11.770;2023-04-19T11:22:36;4.90;;;4.50;;
14849;SDS011;7517;48.400;11.770;2023-04-19T11:25:07;5.37;;;4.90;;
14849;SDS011;7517;48.400;11.770;2023-04-19T11:27:39;5.67;;;4.43;;
14849;SDS011;7517;48.400;11.770;2023-04-19T11:30:09;4.90;;;4.50;;
14849;SDS011;7517;48.400;11.770;2023-04-19T11:32:43;4.97;;;4.57;;
14849;SDS011;7517;48.400;11.770;2023-04-19T11:35:13;5.30;;;4.80;;
14849;SDS011;7517;48.400;11.770;2023-04-19T11:37:44;7.27;;;5.70;;
14849;SDS011;7517;48.400;11.770;2023-04-19T11:40:13;5.87;;;5.03;;
14849;SDS011;7517;48.400;11.770;2023-04-19T11:42:43;6.23;;;5.63;;
14849;SDS011;7517;48.400;11.770;2023-04-19T11:45:12;5.77;;;5.07;;
14849;SDS011;7517;48.400;11.770;2023-04-19T11:47:55;5.37;;;4.97;;
14849;SDS011;7517;48.400;11.770;2023-04-19T11:50:30;5.33;;;4.80;;
14849;SDS011;7517;48.400;11.770;2023-04-19T11:53:09;6.10;;;4.60;;
14849;SDS011;7517;48.400;11.770;2023-04-19T11:55:42;5.63;;;5.13;;
14849;SDS011;7517;48.400;11.770;2023-04-19T11:58:38;5.37;;;4.87;;
14849;SDS011;7517;48.400;11.770;2023-04-19T12:01:18;4.40;;;4.10;;
14849;SDS011;7517;48.400;11.770;2023-04-19T12:03:49;5.10;;;4.70;;
14849;SDS011;7517;48.400;11.770;2023-04-19T12:06:21;4.53;;;4.13;;
14849;SDS011;7517;48.400;11.770;2023-04-19T12:08:52;4.10;;;3.73;;
14849;SDS011;7517;48.400;11.770;2023-04-19T12:11:40;4.00;;;3.70;;
14849;SDS011;7517;48.400;11.770;2023-04-19T12:14:12;3.90;;;3.60;;
14849;SDS011;7517;48.400;11.770;2023-04-19T12:16:41;3.87;;;3.57;;
14849;SDS011;7517;48.400;11.770;2023-04-19T12:19:12;4.17;;;3.83;;
14849;SDS011;7517;48.400;11.770;2023-04-19T12:21:42;4.03;;;3.60;;
14849;SDS011;7517;48.400;11.770;2023-04-19T12:24:13;4.07;;;3.67;;
14849;SDS011;7517;48.400;11.770;2023-04-19T12:26:51;3.70;;;3.40;;
14849;SDS011;7517;48.400;11.770;2023-04-19T12:29:22;3.83;;;3.53;;
14849;SDS011;7517;48.400;11.770;2023-04-19T12:31:49;4.00;;;3.70;;
14849;SDS011;7517;48.400;11.770;2023-04-19T12:34:16;4.03;;;3.27;;
14849;SDS011;7517;48.400;11.770;2023-04-19T12:36:45;3.73;;;3.43;;
14849;SDS011;7517;48.400;11.770;2023-04-19T12:39:13;3.77;;;3.47;;
14849;SDS011;7517;48.400;11.770;2023-04-19T12:41:40;4.03;;;3.63;;
14849;SDS011;7517;48.400;11.770;2023-04-19T12:44:07;3.87;;;3.50;;
14849;SDS011;7517;48.400;11.770;2023-04-19T12:46:36;3.87;;;3.57;;
14849;SDS011;7517;48.400;11.770;2023-04-19T12:49:05;4.40;;;4.00;;
14849;SDS011;7517;48.400;11.770;2023-04-19T12:51:32;4.30;;;3.90;;
14849;SDS011;7517;48.400;11.770;2023-04-19T12:54:00;3.33;;;3.03;;
14849;SDS011;7517;48.400;11.770;2023-04-19T12:56:27;4.30;;;3.87;;
14849;SDS011;7517;48.400;11.770;2023-04-19T12:58:54;3.53;;;3.23;;
14849;SDS011;7517;48.400;11.770;2023-04-19T13:01:23;3.53;;;3.33;;
14849;SDS011;7517;48.400;11.770;2023-04-19T13:03:53;3.10;;;2.90;;
14849;SDS011;7517;48.400;11.770;2023-04-19T13:06:21;3.20;;;3.00;;
14849;SDS011;7517;48.400;11.770;2023-04-19T13:08:48;3.07;;;2.87;;
14849;SDS011;7517;48.400;11.770;2023-04-19T13:11:15;3.00;;;2.80;;
14849;SDS011;7517;48.400;11.770;2023-04-19T13:13:47;2.97;;;2.43;;
14849;SDS011;7517;48.400;11.770;2023-04-19T13:16:17;3.00;;;2.70;;
14849;SDS011;7517;48.400;11.770;2023-04-19T13:18:44;2.83;;;2.50;;
14849;SDS011;7517;48.400;11.770;2023-04-19T13:21:13;2.47;;;2.37;;
14849;SDS011;7517;48.400;11.770;2023-04-19T13:23:41;2.70;;;2.50;;
14849;SDS011;7517;48.400;11.770;2023-04-19T13:26:11;2.87;;;2.67;;
14849;SDS011;7517;48.400;11.770;2023-04-19T13:28:39;3.30;;;3.00;;
14849;SDS011;7517;48.400;11.770;2023-04-19T13:31:07;3.40;;;3.10;;
14849;SDS011;7517;48.400;11.770;2023-04-19T13:33:34;3.60;;;3.30;;
14849;SDS011;7517;48.400;11.770;2023-04-19T13:36:02;3.00;;;2.80;;
14849;SDS011;7517;48.400;11.770;2023-04-19T13:38:31;3.23;;;3.03;;
14849;SDS011;7517;48.400;11.770;2023-04-19T13:40:58;3.20;;;2.90;;
14849;SDS011;7517;48.400;11.770;2023-04-19T13:43:26;2.70;;;2.50;;
14849;SDS011;7517;48.400;11.770;2023-04-19T13:45:53;4.10;;;2.70;;
14849;SDS011;7517;48.400;11.770;2023-04-19T13:48:21;2.70;;;2.50;;
14849;SDS011;7517;48.400;11.770;2023-04-19T13:50:52;3.20;;;3.00;;
14849;SDS011;7517;48.400;11.770;2023-04-19T13:53:20;2.80;;;2.60;;
14849;SDS011;7517;48.400;11.770;2023-04-19T13:55:50;3.70;;;2.90;;
14849;SDS011;7517;48.400;11.770;2023-04-19T13:58:17;4.03;;;3.20;;
14849;SDS011;7517;48.400;11.770;2023-04-19T14:00:44;5.50;;;3.20;;
14849;SDS011;7517;48.400;11.770;2023-04-19T14:03:14;3.07;;;2.77;;
14849;SDS011;7517;48.400;11.770;2023-04-19T14:05:42;2.60;;;2.40;;
14849;SDS011;7517;48.400;11.770;2023-04-19T14:08:10;2.87;;;2.63;;
14849;SDS011;7517;48.400;11.770;2023-04-19T14:10:37;2.80;;;2.47;;
14849;SDS011;7517;48.400;11.770;2023-04-19T14:13:06;2.87;;;2.67;;
14849;SDS011;7517;48.400;11.770;2023-04-19T14:15:33;3.03;;;2.57;;
14849;SDS011;7517;48.400;11.770;2023-04-19T14:18:00;3.23;;;2.20;;
14849;SDS011;7517;48.400;11.770;2023-04-19T14:20:28;2.67;;;2.47;;
14849;SDS011;7517;48.400;11.770;2023-04-19T14:22:57;2.93;;;2.60;;
14849;SDS011;7517;48.400;11.770;2023-04-19T14:25:26;2.43;;;2.00;;
14849;SDS011;7517;48.400;11.770;2023-04-19T14:27:54;2.60;;;2.40;;
14849;SDS011;7517;48.400;11.770;2023-04-19T14:30:23;2.40;;;2.30;;
14849;SDS011;7517;48.400;11.770;2023-04-19T14:32:50;2.97;;;2.70;;
14849;SDS011;7517;48.400;11.770;2023-04-19T14:35:18;2.70;;;2.50;;
14849;SDS011;7517;48.400;11.770;2023-04-19T14:37:46;2.63;;;2.43;;
14849;SDS011;7517;48.400;11.770;2023-04-19T14:40:13;2.80;;;2.60;;
14849;SDS011;7517;48.400;11.770;2023-04-19T14:42:42;3.23;;;2.93;;
14849;SDS011;7517;48.400;11.770;2023-04-19T14:45:09;3.77;;;3.43;;
14849;SDS011;7517;48.400;11.770;2023-04-19T14:47:39;3.00;;;2.80;;
14849;SDS011;7517;48.400;11.770;2023-04-19T14:50:06;3.60;;;3.30;;
14849;SDS011;7517;48.400;11.770;2023-04-19T14:52:34;3.67;;;3.20;;
14849;SDS011;7517;48.400;11.770;2023-04-19T14:55:02;4.37;;;3.90;;